createdAt,value
2023-05-11T11:28:29.796Z,33.26
2023-05-11T11:29:29.641Z,32.93
2023-05-11T11:30:29.682Z,32.85
2023-05-11T11:31:29.439Z,32.84
2023-05-11T11:32:29.914Z,32.80
2023-05-11T11:33:29.115Z,32.70
2023-05-11T11:34:29.025Z,32.67
2023-05-11T11:35:28.809Z,32.52
2023-05-11T11:36:28.660Z,32.44
2023-05-11T11:37:28.484Z,32.42
2023-05-11T11:38:29.461Z,32.38
2023-05-11T11:39:28.168Z,32.33
2023-05-11T11:40:32.118Z,32.23
2023-05-11T11:41:28.822Z,32.23
2023-05-11T11:42:27.671Z,32.17
2023-05-11T11:43:27.469Z,32.15
2023-05-11T11:44:27.295Z,32.13
2023-05-11T11:45:27.133Z,32.08
2023-05-11T11:46:27.097Z,32.08
2023-05-11T11:47:26.891Z,32.13
2023-05-11T11:48:26.608Z,32.27
2023-05-11T11:49:26.427Z,32.35
2023-05-11T11:50:26.227Z,32.38
2023-05-11T11:51:26.049Z,32.50
2023-05-11T11:52:25.913Z,32.60
2023-05-11T11:53:25.689Z,32.66
2023-05-11T11:54:25.540Z,32.68
2023-05-11T11:55:25.392Z,32.72
2023-05-11T11:56:25.168Z,32.77
2023-05-11T11:57:24.995Z,32.70
2023-05-11T11:58:24.834Z,32.72
2023-05-11T11:59:24.657Z,32.70
2023-05-11T12:00:24.469Z,32.71
2023-05-11T12:01:24.283Z,32.66
2023-05-11T12:02:24.137Z,32.74
2023-05-11T12:03:24.032Z,32.35
2023-05-11T12:04:23.951Z,32.42
2023-05-11T12:05:24.024Z,32.43
2023-05-11T12:06:25.837Z,32.48
2023-05-11T12:07:23.236Z,32.65
2023-05-11T12:08:23.022Z,32.69
2023-05-11T12:09:22.903Z,32.72
2023-05-11T12:10:22.702Z,32.65
2023-05-11T12:11:22.491Z,32.60
2023-05-11T12:12:22.325Z,32.58
2023-05-11T12:13:22.135Z,32.45
2023-05-11T12:14:21.956Z,32.52
2023-05-11T12:15:21.759Z,32.45
2023-05-11T12:16:21.664Z,32.45
2023-05-11T12:17:21.462Z,32.43
2023-05-11T12:18:21.259Z,32.38
2023-05-11T12:19:21.035Z,32.47
2023-05-11T12:20:20.887Z,32.43
2023-05-11T12:21:20.679Z,32.41
2023-05-11T12:22:20.487Z,32.39
2023-05-11T12:23:20.324Z,32.36
2023-05-11T12:24:20.142Z,32.34
2023-05-11T12:25:20.064Z,32.36
2023-05-11T12:26:19.768Z,32.36
2023-05-11T12:27:19.584Z,32.35
2023-05-11T12:28:19.426Z,32.38
2023-05-11T12:29:19.227Z,32.32
2023-05-11T12:30:19.065Z,32.33
2023-05-11T12:31:18.936Z,32.37
2023-05-11T12:32:18.712Z,32.31
2023-05-11T12:33:18.619Z,32.27
2023-05-11T12:34:18.329Z,32.24
2023-05-11T12:35:18.352Z,32.31
2023-05-11T12:36:17.977Z,32.35
2023-05-11T12:37:17.800Z,32.28
2023-05-11T12:38:17.615Z,32.30
2023-05-11T12:39:17.423Z,32.36
2023-05-11T12:40:17.243Z,32.40
2023-05-11T12:41:17.048Z,32.39
2023-05-11T12:42:16.855Z,32.38
2023-05-11T12:43:16.681Z,32.41
2023-05-11T12:44:16.518Z,32.44
2023-05-11T12:45:16.573Z,32.40
2023-05-11T12:46:16.200Z,32.37
2023-05-11T12:47:15.949Z,32.41
2023-05-11T12:48:15.808Z,32.51
2023-05-11T12:49:15.571Z,32.51
2023-05-11T12:50:15.395Z,32.54
2023-05-11T12:51:15.201Z,32.58
2023-05-11T12:52:15.016Z,32.44
2023-05-11T12:53:14.840Z,32.47
2023-05-11T12:54:14.660Z,32.42
2023-05-11T12:55:14.464Z,32.51
2023-05-11T12:56:14.280Z,32.47
2023-05-11T12:57:14.092Z,32.46
2023-05-11T12:58:13.956Z,32.51
2023-05-11T12:59:13.729Z,32.56
2023-05-11T13:00:13.553Z,32.59
2023-05-11T13:01:13.404Z,32.57
2023-05-11T13:02:13.234Z,32.60
2023-05-11T13:03:13.101Z,32.62
2023-05-11T13:04:12.829Z,32.57
2023-05-11T13:05:12.641Z,32.59
2023-05-11T13:06:12.514Z,32.66
2023-05-11T13:07:12.268Z,32.69
2023-05-11T13:08:12.112Z,32.67
2023-05-11T13:09:11.904Z,32.70
2023-05-11T13:10:11.734Z,32.79
2023-05-11T13:11:11.608Z,32.71
2023-05-11T13:12:11.496Z,32.69
2023-05-11T13:13:11.385Z,32.73
2023-05-11T13:14:11.255Z,32.80
2023-05-11T13:15:11.105Z,32.79
2023-05-11T13:16:10.977Z,32.73
2023-05-11T13:17:10.834Z,32.81
2023-05-11T13:18:10.708Z,32.83
2023-05-11T13:19:10.566Z,32.80
2023-05-11T13:20:10.401Z,32.76
2023-05-11T13:21:10.213Z,32.76
2023-05-11T13:22:10.061Z,32.74
2023-05-11T13:23:09.877Z,32.77
2023-05-11T13:24:09.731Z,32.80
2023-05-11T13:25:09.593Z,32.77
2023-05-11T13:26:09.458Z,32.79
2023-05-11T13:27:09.288Z,32.74
2023-05-11T13:28:09.167Z,32.79
2023-05-11T13:29:11.285Z,32.85
2023-05-11T13:30:09.099Z,32.80
2023-05-11T13:31:09.063Z,32.80
2023-05-11T13:32:08.761Z,32.81
2023-05-11T13:33:08.584Z,32.82
2023-05-11T13:34:08.411Z,32.78
2023-05-11T13:35:08.193Z,32.78
2023-05-11T13:36:07.998Z,32.82
2023-05-11T13:37:07.816Z,32.78
2023-05-11T13:38:07.650Z,32.85
2023-05-11T13:39:07.501Z,32.81
2023-05-11T13:40:07.276Z,32.91
2023-05-11T13:41:07.112Z,32.90
2023-05-11T13:42:06.895Z,32.80
2023-05-11T13:43:06.735Z,32.80
2023-05-11T13:44:06.557Z,32.82
2023-05-11T13:45:06.384Z,32.91
2023-05-11T13:46:06.248Z,32.83
2023-05-11T13:47:06.152Z,32.80
2023-05-11T13:48:06.030Z,32.84
2023-05-11T13:49:05.850Z,32.91
2023-05-11T13:50:05.720Z,32.89
2023-05-11T13:51:05.502Z,32.87
2023-05-11T13:52:05.315Z,32.95
2023-05-11T13:53:05.128Z,32.91
2023-05-11T13:54:04.917Z,32.86
2023-05-11T13:55:04.734Z,32.97
2023-05-11T13:56:04.521Z,32.99
2023-05-11T13:57:04.332Z,32.98
2023-05-11T13:58:04.173Z,32.93
2023-05-11T13:59:03.965Z,32.97
2023-05-11T14:00:03.812Z,33.06
2023-05-11T14:01:07.825Z,33.01
2023-05-11T14:02:03.581Z,33.08
2023-05-11T14:03:03.466Z,33.09
2023-05-11T14:04:03.078Z,33.12
2023-05-11T14:05:02.910Z,33.12
2023-05-11T14:06:02.689Z,33.11
2023-05-11T14:07:02.514Z,33.10
2023-05-11T14:08:02.333Z,33.13
2023-05-11T14:09:02.134Z,33.14
2023-05-11T14:10:01.957Z,33.17
2023-05-11T14:11:01.791Z,33.19
2023-05-11T14:12:01.670Z,33.18
2023-05-11T14:13:01.536Z,33.17
2023-05-11T14:14:01.452Z,33.21
2023-05-11T14:15:01.319Z,33.21
2023-05-11T14:16:01.211Z,33.24
2023-05-11T14:17:01.135Z,33.23
2023-05-11T14:18:00.994Z,33.22
2023-05-11T14:19:01.010Z,33.25
2023-05-11T14:20:00.728Z,33.23
2023-05-11T14:21:00.607Z,33.28
2023-05-11T14:22:00.484Z,33.23
2023-05-11T14:23:00.370Z,33.30
2023-05-11T14:24:11.574Z,33.32
2023-05-11T14:25:01.064Z,33.35
2023-05-11T14:25:59.881Z,33.30
2023-05-11T14:26:59.707Z,33.33
2023-05-11T14:27:59.528Z,33.32
2023-05-11T14:28:59.334Z,33.33
2023-05-11T14:29:59.150Z,33.33
2023-05-11T14:30:59.027Z,33.37
2023-05-11T14:31:58.812Z,33.39
2023-05-11T14:32:58.660Z,33.36
2023-05-11T14:33:58.440Z,33.34
2023-05-11T14:34:58.258Z,33.36
2023-05-11T14:35:58.067Z,33.34
2023-05-11T14:36:57.902Z,33.37
2023-05-11T14:37:57.730Z,33.40
2023-05-11T14:38:57.577Z,33.39
2023-05-11T14:39:57.450Z,33.42
2023-05-11T14:40:57.308Z,33.43
2023-05-11T14:41:57.187Z,33.34
2023-05-11T14:42:57.154Z,33.42
2023-05-11T14:43:56.976Z,33.43
2023-05-11T14:44:56.837Z,33.44
2023-05-11T14:45:56.755Z,33.43
2023-05-11T14:46:56.603Z,33.47
2023-05-11T14:47:56.589Z,33.47
2023-05-11T14:48:56.387Z,33.44
2023-05-11T14:49:56.269Z,33.44
2023-05-11T14:50:56.160Z,33.46
2023-05-11T14:51:56.040Z,33.45
2023-05-11T14:52:55.938Z,33.46
2023-05-11T14:53:55.800Z,33.47
2023-05-11T14:54:55.708Z,33.48
2023-05-11T14:55:55.576Z,33.47
2023-05-11T14:56:56.288Z,33.49
2023-05-11T14:57:55.353Z,33.49
2023-05-11T14:58:55.162Z,33.51
2023-05-11T14:59:59.622Z,33.49
2023-05-11T15:00:55.810Z,33.50
2023-05-11T15:01:54.687Z,33.52
2023-05-11T15:02:54.453Z,33.56
2023-05-11T15:03:54.292Z,33.53
2023-05-11T15:04:54.052Z,33.53
2023-05-11T15:05:53.895Z,33.53
2023-05-11T15:06:53.697Z,33.52
2023-05-11T15:07:53.516Z,33.54
2023-05-11T15:08:53.404Z,33.55
2023-05-11T15:09:53.272Z,33.59
2023-05-11T15:10:53.158Z,33.55
2023-05-11T15:11:53.043Z,33.58
2023-05-11T15:12:52.920Z,33.59
2023-05-11T15:13:52.813Z,33.58
2023-05-11T15:14:52.685Z,33.60
2023-05-11T15:15:52.586Z,33.63
2023-05-11T15:16:52.440Z,33.64
2023-05-11T15:17:52.369Z,33.60
2023-05-11T15:18:52.221Z,33.64
2023-05-11T15:19:52.084Z,33.67
2023-05-11T15:20:51.976Z,33.66
2023-05-11T15:21:51.866Z,33.71
2023-05-11T15:22:51.744Z,33.69
2023-05-11T15:23:51.627Z,33.74
2023-05-11T15:24:51.491Z,33.72
2023-05-11T15:25:51.376Z,33.70
2023-05-11T15:26:51.261Z,33.76
2023-05-11T15:27:51.140Z,33.79
2023-05-11T15:28:51.026Z,33.81
2023-05-11T15:29:50.876Z,33.81
2023-05-11T15:30:50.740Z,33.77
2023-05-11T15:31:50.678Z,33.77
2023-05-11T15:32:50.523Z,33.77
2023-05-11T15:33:50.404Z,33.88
2023-05-11T15:34:59.084Z,33.84
2023-05-11T15:35:51.070Z,33.87
2023-05-11T15:36:49.980Z,33.91
2023-05-11T15:37:49.702Z,33.88
2023-05-11T15:38:49.522Z,33.89
2023-05-11T15:39:49.347Z,33.91
2023-05-11T15:40:49.168Z,33.92
2023-05-11T15:41:49.001Z,33.90
2023-05-11T15:42:48.815Z,33.90
2023-05-11T15:43:48.639Z,33.91
2023-05-11T15:44:48.514Z,33.91
2023-05-11T15:45:48.437Z,33.98
2023-05-11T15:46:48.757Z,34.03
2023-05-11T15:47:48.193Z,33.97
2023-05-11T15:48:48.030Z,33.97
2023-05-11T15:49:47.892Z,34.00
2023-05-11T15:50:47.765Z,34.00
2023-05-11T15:51:47.652Z,34.04
2023-05-11T15:52:47.542Z,34.04
2023-05-11T15:53:47.409Z,34.03
2023-05-11T15:54:47.308Z,33.98
2023-05-11T15:55:47.154Z,34.03
2023-05-11T15:56:47.062Z,34.06
2023-05-11T15:57:46.890Z,34.06
2023-05-11T15:58:46.705Z,34.05
2023-05-11T15:59:46.494Z,34.05
2023-05-11T16:00:46.314Z,34.13
2023-05-11T16:01:46.170Z,34.09
2023-05-11T16:02:46.066Z,34.15
2023-05-11T16:03:45.747Z,34.14
2023-05-11T16:04:45.547Z,34.17
2023-05-11T16:05:45.529Z,34.21
2023-05-11T16:06:45.315Z,34.14
2023-05-11T16:07:45.192Z,34.19
2023-05-11T16:08:45.082Z,34.21
2023-05-11T16:09:44.952Z,34.18
2023-05-11T16:10:44.827Z,34.27
2023-05-11T16:11:44.715Z,34.22
2023-05-11T16:12:44.585Z,34.16
2023-05-11T16:13:44.478Z,34.24
2023-05-11T16:14:44.344Z,34.31
2023-05-11T16:15:44.206Z,34.32
2023-05-11T16:16:44.033Z,34.32
2023-05-11T16:17:43.841Z,34.31
2023-05-11T16:18:43.681Z,34.35
2023-05-11T16:19:43.444Z,34.32
2023-05-11T16:20:43.278Z,34.37
2023-05-11T16:21:43.078Z,34.38
2023-05-11T16:22:42.910Z,34.38
2023-05-11T16:23:42.711Z,34.36
2023-05-11T16:24:42.579Z,34.38
2023-05-11T16:25:42.462Z,34.33
2023-05-11T16:26:42.353Z,34.37
2023-05-11T16:27:42.232Z,34.36
2023-05-11T16:28:42.114Z,34.40
2023-05-11T16:29:41.984Z,34.41
2023-05-11T16:30:41.882Z,34.45
2023-05-11T16:31:41.823Z,34.47
2023-05-11T16:32:41.669Z,34.49
2023-05-11T16:33:41.563Z,34.50
2023-05-11T16:34:41.454Z,34.45
2023-05-11T16:35:41.308Z,34.49
2023-05-11T16:36:41.193Z,34.48
2023-05-11T16:37:41.098Z,34.52
2023-05-11T16:38:40.980Z,34.46
2023-05-11T16:39:40.848Z,34.51
2023-05-11T16:40:40.742Z,34.50
2023-05-11T16:41:40.631Z,34.50
2023-05-11T16:42:40.534Z,34.49
2023-05-11T16:43:40.417Z,34.50
2023-05-11T16:44:40.307Z,34.53
2023-05-11T16:45:40.197Z,34.53
2023-05-11T16:46:40.185Z,34.55
2023-05-11T16:47:39.960Z,34.56
2023-05-11T16:48:39.834Z,34.58
2023-05-11T16:49:39.703Z,34.58
2023-05-11T16:50:39.576Z,34.61
2023-05-11T16:51:39.468Z,34.55
2023-05-11T16:52:39.332Z,34.64
2023-05-11T16:53:39.243Z,34.63
2023-05-11T16:54:39.115Z,34.60
2023-05-11T16:55:39.006Z,34.69
2023-05-11T16:56:38.900Z,34.63
2023-05-11T16:57:38.780Z,34.62
2023-05-11T16:58:38.679Z,34.67
2023-05-11T16:59:38.562Z,34.62
2023-05-11T17:00:38.455Z,34.62
2023-05-11T17:01:38.381Z,34.67
2023-05-11T17:02:38.348Z,34.69
2023-05-11T17:03:38.208Z,34.66
2023-05-11T17:04:38.008Z,34.68
2023-05-11T17:05:37.888Z,34.64
2023-05-11T17:06:37.771Z,34.71
2023-05-11T17:07:37.600Z,34.75
2023-05-11T17:08:37.441Z,34.65
2023-05-11T17:09:37.233Z,34.67
2023-05-11T17:10:37.055Z,34.74
2023-05-11T17:11:36.896Z,34.74
2023-05-11T17:12:36.718Z,34.73
2023-05-11T17:13:36.525Z,34.69
2023-05-11T17:14:36.352Z,34.72
2023-05-11T17:15:36.176Z,34.72
2023-05-11T17:16:36.048Z,34.70
2023-05-11T17:17:35.848Z,34.69
2023-05-11T17:18:35.670Z,34.72
2023-05-11T17:19:35.455Z,34.71
2023-05-11T17:20:35.276Z,34.72
2023-05-11T17:21:35.100Z,34.79
2023-05-11T17:22:34.939Z,34.77
2023-05-11T17:23:34.750Z,34.76
2023-05-11T17:24:34.604Z,34.79
2023-05-11T17:25:34.387Z,34.73
2023-05-11T17:26:46.484Z,34.81
2023-05-11T17:27:35.053Z,34.77
2023-05-11T17:28:33.885Z,34.76
2023-05-11T17:29:33.717Z,34.83
2023-05-11T17:30:47.507Z,34.76
2023-05-11T17:31:34.593Z,34.78
2023-05-11T17:32:33.378Z,34.84
2023-05-11T17:33:33.040Z,34.86
2023-05-11T17:34:32.927Z,34.83
2023-05-11T17:35:32.660Z,34.83
2023-05-11T17:36:32.474Z,34.80
2023-05-11T17:37:32.721Z,34.80
2023-05-11T17:38:32.141Z,34.85
2023-05-11T17:39:31.977Z,34.81
2023-05-11T17:40:31.813Z,34.81
2023-05-11T17:41:31.642Z,34.86
2023-05-11T17:42:31.524Z,34.87
2023-05-11T17:43:31.390Z,34.84
2023-05-11T17:44:31.283Z,34.85
2023-05-11T17:45:31.242Z,34.89
2023-05-11T17:46:31.070Z,34.83
2023-05-11T17:47:30.952Z,34.84
2023-05-11T17:48:30.784Z,34.84
2023-05-11T17:49:30.601Z,34.87
2023-05-11T17:50:30.438Z,34.89
2023-05-11T17:51:30.273Z,34.94
2023-05-11T17:52:30.089Z,34.92
2023-05-11T17:53:29.915Z,34.89
2023-05-11T17:54:29.750Z,34.93
2023-05-11T17:55:29.582Z,34.91
2023-05-11T17:56:29.413Z,34.92
2023-05-11T17:57:29.260Z,34.93
2023-05-11T17:58:29.119Z,34.95
2023-05-11T17:59:28.991Z,34.87
2023-05-11T18:00:28.846Z,34.94
2023-05-11T18:01:28.821Z,34.98
2023-05-11T18:02:28.587Z,35.00
2023-05-11T18:03:28.436Z,35.01
2023-05-11T18:04:28.210Z,35.01
2023-05-11T18:05:40.374Z,35.00
2023-05-11T18:06:28.834Z,34.98
2023-05-11T18:07:27.647Z,34.96
2023-05-11T18:08:27.484Z,34.95
2023-05-11T18:09:27.322Z,34.99
2023-05-11T18:10:27.149Z,34.97
2023-05-11T18:11:26.974Z,34.96
2023-05-11T18:12:26.797Z,34.99
2023-05-11T18:13:26.629Z,34.98
2023-05-11T18:14:26.468Z,34.98
2023-05-11T18:15:26.284Z,34.96
2023-05-11T18:16:26.176Z,35.01
2023-05-11T18:17:25.992Z,35.01
2023-05-11T18:18:25.821Z,34.99
2023-05-11T18:19:25.592Z,35.00
2023-05-11T18:20:25.416Z,34.97
2023-05-11T18:21:25.240Z,35.02
2023-05-11T18:22:25.074Z,35.00
2023-05-11T18:23:24.944Z,35.00
2023-05-11T18:24:24.761Z,34.96
2023-05-11T18:25:24.613Z,34.99
2023-05-11T18:26:24.469Z,35.03
2023-05-11T18:27:24.329Z,35.05
2023-05-11T18:28:24.204Z,35.03
2023-05-11T18:29:24.124Z,35.03
2023-05-11T18:30:23.966Z,34.99
2023-05-11T18:31:23.811Z,34.96
2023-05-11T18:32:23.615Z,35.01
2023-05-11T18:33:23.508Z,35.02
2023-05-11T18:34:23.275Z,34.97
2023-05-11T18:35:23.089Z,35.04
2023-05-11T18:36:22.926Z,35.02
2023-05-11T18:37:22.789Z,35.02
2023-05-11T18:38:22.594Z,35.00
2023-05-11T18:39:22.413Z,35.00
2023-05-11T18:40:22.428Z,35.03
2023-05-11T18:41:22.051Z,35.03
2023-05-11T18:42:21.895Z,35.03
2023-05-11T18:43:21.727Z,35.01
2023-05-11T18:44:21.566Z,34.99
2023-05-11T18:45:21.378Z,34.96
2023-05-11T18:46:21.241Z,35.03
2023-05-11T18:47:21.031Z,35.05
2023-05-11T18:48:20.853Z,35.06
2023-05-11T18:49:20.690Z,35.09
2023-05-11T18:50:20.743Z,35.04
2023-05-11T18:51:20.349Z,35.03
2023-05-11T18:52:20.183Z,35.03
2023-05-11T18:53:19.990Z,35.07
2023-05-11T18:54:19.827Z,35.05
2023-05-11T18:55:19.643Z,34.99
2023-05-11T18:56:19.496Z,34.99
2023-05-11T18:57:19.312Z,34.98
2023-05-11T18:58:19.129Z,34.98
2023-05-11T18:59:19.000Z,34.92
2023-05-11T19:00:19.237Z,34.96
2023-05-11T19:01:18.677Z,35.04
2023-05-11T19:02:18.492Z,35.00
2023-05-11T19:03:18.330Z,35.00
2023-05-11T19:04:18.090Z,34.98
2023-05-11T19:05:17.925Z,35.03
2023-05-11T19:06:17.758Z,35.00
2023-05-11T19:07:33.089Z,34.99
2023-05-11T19:08:17.401Z,35.05
2023-05-11T19:09:17.226Z,35.01
2023-05-11T19:10:17.154Z,35.03
2023-05-11T19:11:16.896Z,35.01
2023-05-11T19:12:16.713Z,35.01
2023-05-11T19:13:16.521Z,35.04
2023-05-11T19:14:16.363Z,35.08
2023-05-11T19:15:16.198Z,35.02
2023-05-11T19:16:16.046Z,35.03
2023-05-11T19:17:15.828Z,35.00
2023-05-11T19:18:15.694Z,35.04
2023-05-11T19:19:15.485Z,35.02
2023-05-11T19:20:15.366Z,34.99
2023-05-11T19:21:15.158Z,34.98
2023-05-11T19:22:14.979Z,35.01
2023-05-11T19:23:14.801Z,35.03
2023-05-11T19:24:14.630Z,35.08
2023-05-11T19:25:14.445Z,35.08
2023-05-11T19:26:14.285Z,35.06
2023-05-11T19:27:14.102Z,35.02
2023-05-11T19:28:13.928Z,35.00
2023-05-11T19:29:13.768Z,35.04
2023-05-11T19:30:13.595Z,35.05
2023-05-11T19:31:13.418Z,35.00
2023-05-11T19:32:13.311Z,35.05
2023-05-11T19:33:13.118Z,35.10
2023-05-11T19:34:12.918Z,35.10
2023-05-11T19:35:12.737Z,35.07
2023-05-11T19:36:12.559Z,35.03
2023-05-11T19:37:12.373Z,35.04
2023-05-11T19:38:12.199Z,35.06
2023-05-11T19:39:12.025Z,35.04
2023-05-11T19:40:43.569Z,35.03
2023-05-11T19:41:12.676Z,35.03
2023-05-11T19:42:11.502Z,35.12
2023-05-11T19:43:11.376Z,35.11
2023-05-11T19:44:11.178Z,35.04
2023-05-11T19:45:10.999Z,35.02
2023-05-11T19:46:10.857Z,35.08
2023-05-11T19:47:10.657Z,35.03
2023-05-11T19:48:10.528Z,35.11
2023-05-11T19:49:10.314Z,35.08
2023-05-11T19:50:10.146Z,35.06
2023-05-11T19:51:09.953Z,35.04
2023-05-11T19:52:09.792Z,35.06
2023-05-11T19:53:09.606Z,35.10
2023-05-11T19:54:09.444Z,35.05
2023-05-11T19:55:09.268Z,35.01
2023-05-11T19:56:09.119Z,35.01
2023-05-11T19:57:08.912Z,35.03
2023-05-11T19:58:08.764Z,35.10
2023-05-11T19:59:08.634Z,35.08
2023-05-11T20:00:08.412Z,35.07
2023-05-11T20:01:08.276Z,35.07
2023-05-11T20:02:08.066Z,35.11
2023-05-11T20:03:07.965Z,35.08
2023-05-11T20:04:07.825Z,35.08
2023-05-11T20:05:07.551Z,35.03
2023-05-11T20:06:07.369Z,35.09
2023-05-11T20:07:07.222Z,35.10
2023-05-11T20:08:07.039Z,35.12
2023-05-11T20:09:06.856Z,35.10
2023-05-11T20:10:06.682Z,35.14
2023-05-11T20:11:06.498Z,35.11
2023-05-11T20:12:06.344Z,35.10
2023-05-11T20:13:06.161Z,35.13
2023-05-11T20:14:06.042Z,35.09
2023-05-11T20:15:05.820Z,35.12
2023-05-11T20:16:05.674Z,35.06
2023-05-11T20:17:05.477Z,35.12
2023-05-11T20:18:05.345Z,35.11
2023-05-11T20:19:05.188Z,35.12
2023-05-11T20:20:04.956Z,35.13
2023-05-11T20:21:04.805Z,35.07
2023-05-11T20:22:04.657Z,35.09
2023-05-11T20:23:04.441Z,35.11
2023-05-11T20:24:04.281Z,35.06
2023-05-11T20:25:04.117Z,35.09
2023-05-11T20:26:03.932Z,35.11
2023-05-11T20:27:03.774Z,35.11
2023-05-11T20:28:03.620Z,35.10
2023-05-11T20:29:03.427Z,35.06
2023-05-11T20:30:03.243Z,35.04
2023-05-11T20:31:03.067Z,35.06
2023-05-11T20:32:02.973Z,35.10
2023-05-11T20:35:02.377Z,35.08
2023-05-11T20:36:02.202Z,35.08
2023-05-11T20:37:02.047Z,35.12
2023-05-11T20:38:01.884Z,35.10
2023-05-11T20:39:01.699Z,35.06
2023-05-11T20:40:01.529Z,35.11
2023-05-11T20:41:01.354Z,35.10
2023-05-11T20:42:01.181Z,35.09
2023-05-11T20:43:01.021Z,35.09
2023-05-11T20:44:00.842Z,35.05
2023-05-11T20:45:00.692Z,35.08
2023-05-11T20:46:00.537Z,35.06
2023-05-11T20:47:00.348Z,35.05
2023-05-11T20:48:00.240Z,35.06
2023-05-11T20:49:00.006Z,35.09
2023-05-11T20:49:59.844Z,35.11
2023-05-11T20:50:59.672Z,35.08
2023-05-11T20:51:59.507Z,35.05
2023-05-11T20:52:59.320Z,35.04
2023-05-11T20:53:59.173Z,35.07
2023-05-11T20:54:58.983Z,35.06
2023-05-11T20:55:59.757Z,35.04
2023-05-11T20:56:58.667Z,35.06
2023-05-11T20:57:58.490Z,35.12
2023-05-11T20:58:58.298Z,35.08
2023-05-11T21:00:58.096Z,35.07
2023-05-11T21:01:57.832Z,35.06
2023-05-11T21:02:57.723Z,35.10
2023-05-11T21:03:57.453Z,35.12
2023-05-11T21:04:57.297Z,35.11
2023-05-11T21:05:57.135Z,35.11
2023-05-11T21:06:56.962Z,35.05
2023-05-11T21:07:56.789Z,35.10
2023-05-11T21:08:56.614Z,35.09
2023-05-11T21:09:56.451Z,35.07
2023-05-11T21:10:56.268Z,35.07
2023-05-11T21:11:56.116Z,35.07
2023-05-11T21:12:55.927Z,35.10
2023-05-11T21:13:55.757Z,35.11
2023-05-11T21:14:56.841Z,35.10
2023-05-11T21:15:55.432Z,35.10
2023-05-11T21:16:55.275Z,35.09
2023-05-11T21:17:55.085Z,35.12
2023-05-11T21:18:54.973Z,35.11
2023-05-11T21:19:54.741Z,35.07
2023-05-11T21:20:54.585Z,35.10
2023-05-11T21:21:54.404Z,35.08
2023-05-11T21:22:54.249Z,35.07
2023-05-11T21:23:54.063Z,35.07
2023-05-11T21:24:53.925Z,35.08
2023-05-11T21:25:53.724Z,35.10
2023-05-11T21:26:53.596Z,35.09
2023-05-11T21:27:53.389Z,35.09
2023-05-11T21:28:53.213Z,35.11
2023-05-11T21:29:53.058Z,35.06
2023-05-11T21:30:52.920Z,35.11
2023-05-11T21:31:52.698Z,35.08
2023-05-11T21:32:52.547Z,35.11
2023-05-11T21:33:52.366Z,35.09
2023-05-11T21:34:52.205Z,35.10
2023-05-11T21:35:52.045Z,35.08
2023-05-11T21:36:51.848Z,35.09
2023-05-11T21:37:51.677Z,35.08
2023-05-11T21:38:51.520Z,35.10
2023-05-11T21:39:51.352Z,35.12
2023-05-11T21:40:51.188Z,35.11
2023-05-11T21:41:51.014Z,35.12
2023-05-11T21:42:50.832Z,35.11
2023-05-11T21:43:50.659Z,35.11
2023-05-11T21:44:50.495Z,35.09
2023-05-11T21:45:50.332Z,35.12
2023-05-11T21:46:50.338Z,35.09
2023-05-11T21:47:50.073Z,35.10
2023-05-11T21:48:49.814Z,35.09
2023-05-11T21:49:51.934Z,35.18
2023-05-11T21:50:49.485Z,35.13
2023-05-11T21:51:49.320Z,35.10
2023-05-11T21:52:49.149Z,35.16
2023-05-11T21:53:48.970Z,35.12
2023-05-11T21:54:48.838Z,35.14
2023-05-11T21:55:48.624Z,35.13
2023-05-11T21:56:48.460Z,35.15
2023-05-11T21:57:48.289Z,35.14
2023-05-11T21:58:48.132Z,35.10
2023-05-11T21:59:48.874Z,35.15
2023-05-11T22:00:47.937Z,35.14
2023-05-11T22:01:47.814Z,35.13
2023-05-11T22:02:47.661Z,35.15
2023-05-11T22:03:47.536Z,35.15
2023-05-11T22:04:47.304Z,35.11
2023-05-11T22:05:47.118Z,35.14
2023-05-11T22:06:47.077Z,35.17
2023-05-11T22:07:46.806Z,35.15
2023-05-11T22:08:46.665Z,35.17
2023-05-11T22:09:46.502Z,35.16
2023-05-11T22:10:46.346Z,35.17
2023-05-11T22:11:46.198Z,35.15
2023-05-11T22:12:46.052Z,35.21
2023-05-11T22:13:45.879Z,35.13
2023-05-11T22:14:45.724Z,35.15
2023-05-11T22:15:45.547Z,35.12
2023-05-11T22:16:45.497Z,35.13
2023-05-11T22:17:45.312Z,35.16
2023-05-11T22:18:45.103Z,35.16
2023-05-11T22:19:44.923Z,35.18
2023-05-11T22:20:44.726Z,35.17
2023-05-11T22:21:44.567Z,35.18
2023-05-11T22:22:44.430Z,35.16
2023-05-11T22:23:44.257Z,35.17
2023-05-11T22:24:44.103Z,35.17
2023-05-11T22:25:43.946Z,35.18
2023-05-11T22:26:43.802Z,35.18
2023-05-11T22:27:43.678Z,35.19
2023-05-11T22:28:43.511Z,35.17
2023-05-11T22:29:43.351Z,35.19
2023-05-11T22:30:43.206Z,35.21
2023-05-11T22:31:45.259Z,35.20
2023-05-11T22:32:42.870Z,35.20
2023-05-11T22:33:42.687Z,35.22
2023-05-11T22:34:42.524Z,35.21
2023-05-11T22:35:42.419Z,35.18
2023-05-11T22:36:42.203Z,35.20
2023-05-11T22:37:42.027Z,35.22
2023-05-11T22:38:41.846Z,35.25
2023-05-11T22:39:41.667Z,35.23
2023-05-11T22:40:41.535Z,35.20
2023-05-11T22:41:41.357Z,35.24
2023-05-11T22:42:41.176Z,35.22
2023-05-11T22:43:41.023Z,35.22
2023-05-11T22:44:40.858Z,35.22
2023-05-11T22:45:40.701Z,35.24
2023-05-11T22:46:40.505Z,35.25
2023-05-11T22:47:40.366Z,35.20
2023-05-11T22:48:40.176Z,35.21
2023-05-11T22:49:40.014Z,35.25
2023-05-11T22:50:39.856Z,35.23
2023-05-11T22:51:39.676Z,35.24
2023-05-11T22:52:39.557Z,35.23
2023-05-11T22:53:39.357Z,35.25
2023-05-11T22:54:39.221Z,35.22
2023-05-11T22:55:39.048Z,35.26
2023-05-11T22:56:38.852Z,35.22
2023-05-11T22:57:38.716Z,35.21
2023-05-11T22:58:38.513Z,35.23
2023-05-11T22:59:38.331Z,35.23
2023-05-11T23:00:38.183Z,35.21
2023-05-11T23:01:38.096Z,35.24
2023-05-11T23:02:37.981Z,35.21
2023-05-11T23:03:37.701Z,35.23
2023-05-11T23:04:37.520Z,35.21
2023-05-11T23:05:37.361Z,35.24
2023-05-11T23:06:37.186Z,35.23
2023-05-11T23:07:37.040Z,35.24
2023-05-11T23:08:36.861Z,35.26
2023-05-11T23:09:36.732Z,35.27
2023-05-11T23:10:36.560Z,35.27
2023-05-11T23:11:36.362Z,35.29
2023-05-11T23:12:36.312Z,35.26
2023-05-11T23:13:36.087Z,35.29
2023-05-11T23:14:35.877Z,35.30
2023-05-11T23:15:35.689Z,35.29
2023-05-11T23:16:35.534Z,35.29
2023-05-11T23:17:35.424Z,35.24
2023-05-11T23:18:35.273Z,35.27
2023-05-11T23:19:35.198Z,35.31
2023-05-11T23:20:34.873Z,35.31
2023-05-11T23:21:34.702Z,35.33
2023-05-11T23:22:34.539Z,35.30
2023-05-11T23:23:34.368Z,35.29
2023-05-11T23:24:34.209Z,35.29
2023-05-11T23:25:34.048Z,35.28
2023-05-11T23:26:33.868Z,35.32
2023-05-11T23:27:33.722Z,35.31
2023-05-11T23:28:33.540Z,35.31
2023-05-11T23:29:33.512Z,35.31
2023-05-11T23:30:33.234Z,35.31
2023-05-11T23:31:33.102Z,35.33
2023-05-11T23:32:32.938Z,35.30
2023-05-11T23:33:32.743Z,35.30
2023-05-11T23:34:32.611Z,35.31
2023-05-11T23:35:32.438Z,35.33
2023-05-11T23:36:32.297Z,35.33
2023-05-11T23:37:32.128Z,35.34
2023-05-11T23:38:31.988Z,35.31
2023-05-11T23:39:31.866Z,35.33
2023-05-11T23:40:31.709Z,35.34
2023-05-11T23:41:31.551Z,35.33
2023-05-11T23:42:31.432Z,35.33
2023-05-11T23:43:31.245Z,35.34
2023-05-11T23:44:31.101Z,35.31
2023-05-11T23:45:30.989Z,35.33
2023-05-11T23:46:30.824Z,35.37
2023-05-11T23:47:30.765Z,35.37
2023-05-11T23:48:30.506Z,35.34
2023-05-11T23:49:30.317Z,35.35
2023-05-11T23:50:30.152Z,35.35
2023-05-11T23:51:30.000Z,35.34
2023-05-11T23:52:29.849Z,35.37
2023-05-11T23:53:29.651Z,35.40
2023-05-11T23:54:29.492Z,35.39
2023-05-11T23:55:29.308Z,35.40
2023-05-11T23:56:29.147Z,35.37
2023-05-11T23:57:28.980Z,35.37
2023-05-11T23:58:28.809Z,35.33
2023-05-11T23:59:28.638Z,35.37
